sensor_id;sensor_type;location;lat;lon;timestamp;temperature;humidity
18268;DHT22;9260;49.998;19.880;2023-12-20T00:01:53;0.60;1.00
18268;DHT22;9260;49.998;19.880;2023-12-20T00:11:56;0.40;1.00
18268;DHT22;9260;49.998;19.880;2023-12-20T00:22:01;0.50;1.00
18268;DHT22;9260;49.998;19.880;2023-12-20T00:32:04;0.10;1.00
18268;DHT22;9260;49.998;19.880;2023-12-20T00:42:10;0.00;1.00
18268;DHT22;9260;49.998;19.880;2023-12-20T00:52:13;-0.20;1.00
18268;DHT22;9260;49.998;19.880;2023-12-20T01:02:18;0.10;1.00
18268;DHT22;9260;49.998;19.880;2023-12-20T01:12:21;0.50;1.00
18268;DHT22;9260;49.998;19.880;2023-12-20T01:22:26;0.80;1.00
18268;DHT22;9260;49.998;19.880;2023-12-20T01:32:29;0.90;1.00
18268;DHT22;9260;49.998;19.880;2023-12-20T01:42:34;1.20;1.00
18268;DHT22;9260;49.998;19.880;2023-12-20T01:52:37;0.10;1.00
18268;DHT22;9260;49.998;19.880;2023-12-20T02:02:42;0.10;1.00
18268;DHT22;9260;49.998;19.880;2023-12-20T02:12:46;-0.30;6.30
18268;DHT22;9260;49.998;19.880;2023-12-20T02:22:51;-0.40;6.00
18268;DHT22;9260;49.998;19.880;2023-12-20T02:32:54;-0.70;3.50
18268;DHT22;9260;49.998;19.880;2023-12-20T02:42:59;-1.00;12.20
18268;DHT22;9260;49.998;19.880;2023-12-20T02:53:03;-0.90;13.90
18268;DHT22;9260;49.998;19.880;2023-12-20T03:03:08;-0.60;1.00
18268;DHT22;9260;49.998;19.880;2023-12-20T03:13:11;-0.60;5.10
18268;DHT22;9260;49.998;19.880;2023-12-20T03:23:16;-0.70;1.00
18268;DHT22;9260;49.998;19.880;2023-12-20T03:33:19;-0.80;6.90
18268;DHT22;9260;49.998;19.880;2023-12-20T03:43:24;-0.30;10.10
18268;DHT22;9260;49.998;19.880;2023-12-20T03:53:27;0.70;11.90
18268;DHT22;9260;49.998;19.880;2023-12-20T04:03:32;1.40;1.00
18268;DHT22;9260;49.998;19.880;2023-12-20T04:13:35;1.40;6.20
18268;DHT22;9260;49.998;19.880;2023-12-20T04:23:40;1.50;4.50
18268;DHT22;9260;49.998;19.880;2023-12-20T04:33:43;1.60;5.30
18268;DHT22;9260;49.998;19.880;2023-12-20T04:43:48;1.90;1.00
18268;DHT22;9260;49.998;19.880;2023-12-20T04:53:51;2.10;1.00
18268;DHT22;9260;49.998;19.880;2023-12-20T05:03:55;2.20;1.00
18268;DHT22;9260;49.998;19.880;2023-12-20T05:13:59;3.40;1.00
18268;DHT22;9260;49.998;19.880;2023-12-20T05:24:04;3.70;1.00
18268;DHT22;9260;49.998;19.880;2023-12-20T05:34:07;3.70;1.00
18268;DHT22;9260;49.998;19.880;2023-12-20T05:44:12;3.70;1.00
18268;DHT22;9260;49.998;19.880;2023-12-20T05:54:16;3.50;1.00
18268;DHT22;9260;49.998;19.880;2023-12-20T06:04:20;3.50;1.00
18268;DHT22;9260;49.998;19.880;2023-12-20T06:14:24;3.40;1.00
18268;DHT22;9260;49.998;19.880;2023-12-20T06:24:29;3.40;1.00
18268;DHT22;9260;49.998;19.880;2023-12-20T06:34:34;3.60;1.00
18268;DHT22;9260;49.998;19.880;2023-12-20T06:44:39;2.30;1.00
18268;DHT22;9260;49.998;19.880;2023-12-20T06:54:43;3.10;1.00
18268;DHT22;9260;49.998;19.880;2023-12-20T07:04:47;2.90;1.00
18268;DHT22;9260;49.998;19.880;2023-12-20T07:14:51;3.10;1.00
18268;DHT22;9260;49.998;19.880;2023-12-20T07:24:55;3.00;1.00
18268;DHT22;9260;49.998;19.880;2023-12-20T07:34:59;2.80;1.00
18268;DHT22;9260;49.998;19.880;2023-12-20T07:45:04;3.50;1.00
18268;DHT22;9260;49.998;19.880;2023-12-20T07:55:08;2.90;1.00
18268;DHT22;9260;49.998;19.880;2023-12-20T08:05:13;3.00;1.00
18268;DHT22;9260;49.998;19.880;2023-12-20T08:15:18;2.90;1.00
18268;DHT22;9260;49.998;19.880;2023-12-20T08:25:23;4.00;1.00
18268;DHT22;9260;49.998;19.880;2023-12-20T08:35:26;3.40;1.00
18268;DHT22;9260;49.998;19.880;2023-12-20T08:45:31;3.70;1.00
18268;DHT22;9260;49.998;19.880;2023-12-20T08:55:34;3.40;1.00
18268;DHT22;9260;49.998;19.880;2023-12-20T09:05:39;3.50;1.00
18268;DHT22;9260;49.998;19.880;2023-12-20T09:15:44;3.40;1.00
18268;DHT22;9260;49.998;19.880;2023-12-20T09:25:49;3.60;1.00
18268;DHT22;9260;49.998;19.880;2023-12-20T09:35:56;3.30;1.00
18268;DHT22;9260;49.998;19.880;2023-12-20T09:46:01;3.20;1.00
18268;DHT22;9260;49.998;19.880;2023-12-20T09:56:09;3.20;1.00
18268;DHT22;9260;49.998;19.880;2023-12-20T10:06:13;3.40;1.00
18268;DHT22;9260;49.998;19.880;2023-12-20T10:16:17;3.60;1.00
18268;DHT22;9260;49.998;19.880;2023-12-20T10:26:22;3.30;1.00
18268;DHT22;9260;49.998;19.880;2023-12-20T10:36:27;3.00;1.00
18268;DHT22;9260;49.998;19.880;2023-12-20T10:46:33;2.90;1.00
18268;DHT22;9260;49.998;19.880;2023-12-20T10:56:36;3.20;1.00
18268;DHT22;9260;49.998;19.880;2023-12-20T11:06:43;3.10;1.00
18268;DHT22;9260;49.998;19.880;2023-12-20T11:16:50;3.10;1.00
18268;DHT22;9260;49.998;19.880;2023-12-20T11:26:57;3.10;1.00
18268;DHT22;9260;49.998;19.880;2023-12-20T11:37:02;3.20;1.00
18268;DHT22;9260;49.998;19.880;2023-12-20T11:47:07;3.60;1.00
18268;DHT22;9260;49.998;19.880;2023-12-20T11:57:13;3.50;1.00
18268;DHT22;9260;49.998;19.880;2023-12-20T12:07:18;3.40;1.00
18268;DHT22;9260;49.998;19.880;2023-12-20T12:17:21;3.60;1.00
18268;DHT22;9260;49.998;19.880;2023-12-20T12:27:26;3.50;1.00
18268;DHT22;9260;49.998;19.880;2023-12-20T12:37:30;3.60;1.00
18268;DHT22;9260;49.998;19.880;2023-12-20T12:47:35;3.40;1.00
18268;DHT22;9260;49.998;19.880;2023-12-20T12:57:38;3.50;1.00
18268;DHT22;9260;49.998;19.880;2023-12-20T13:07:43;3.70;1.00
18268;DHT22;9260;49.998;19.880;2023-12-20T13:17:48;3.50;1.00
18268;DHT22;9260;49.998;19.880;2023-12-20T13:27:53;3.30;1.00
18268;DHT22;9260;49.998;19.880;2023-12-20T13:37:56;3.30;1.00
18268;DHT22;9260;49.998;19.880;2023-12-20T13:48:01;3.40;1.00
18268;DHT22;9260;49.998;19.880;2023-12-20T13:58:04;3.30;1.00
18268;DHT22;9260;49.998;19.880;2023-12-20T14:08:09;3.60;1.00
18268;DHT22;9260;49.998;19.880;2023-12-20T14:18:12;3.20;1.00
18268;DHT22;9260;49.998;19.880;2023-12-20T14:28:18;3.00;1.00
18268;DHT22;9260;49.998;19.880;2023-12-20T14:38:22;2.70;1.00
18268;DHT22;9260;49.998;19.880;2023-12-20T14:48:26;2.60;1.00
18268;DHT22;9260;49.998;19.880;2023-12-20T14:58:30;2.30;1.00
18268;DHT22;9260;49.998;19.880;2023-12-20T15:08:35;2.50;1.00
18268;DHT22;9260;49.998;19.880;2023-12-20T15:18:38;2.10;1.00
18268;DHT22;9260;49.998;19.880;2023-12-20T15:28:43;2.20;1.00
18268;DHT22;9260;49.998;19.880;2023-12-20T15:38:46;2.40;1.00
18268;DHT22;9260;49.998;19.880;2023-12-20T15:48:51;1.90;1.00
18268;DHT22;9260;49.998;19.880;2023-12-20T15:58:54;1.90;1.00
18268;DHT22;9260;49.998;19.880;2023-12-20T16:09:00;1.30;1.00
18268;DHT22;9260;49.998;19.880;2023-12-20T16:19:04;1.40;1.00
18268;DHT22;9260;49.998;19.880;2023-12-20T16:29:09;1.50;1.00
18268;DHT22;9260;49.998;19.880;2023-12-20T16:39:14;2.00;1.00
18268;DHT22;9260;49.998;19.880;2023-12-20T16:49:18;1.80;1.00
18268;DHT22;9260;49.998;19.880;2023-12-20T16:59:23;1.90;1.00
18268;DHT22;9260;49.998;19.880;2023-12-20T17:09:28;1.70;1.00
18268;DHT22;9260;49.998;19.880;2023-12-20T17:19:33;1.60;1.00
18268;DHT22;9260;49.998;19.880;2023-12-20T17:29:37;1.10;1.00
18268;DHT22;9260;49.998;19.880;2023-12-20T17:39:41;1.10;1.00
18268;DHT22;9260;49.998;19.880;2023-12-20T17:49:46;1.00;1.00
18268;DHT22;9260;49.998;19.880;2023-12-20T17:59:49;1.00;1.00
18268;DHT22;9260;49.998;19.880;2023-12-20T18:09:54;1.60;1.00
18268;DHT22;9260;49.998;19.880;2023-12-20T18:19:58;1.80;1.00
18268;DHT22;9260;49.998;19.880;2023-12-20T18:30:03;2.20;1.00
18268;DHT22;9260;49.998;19.880;2023-12-20T18:40:17;2.30;1.00
18268;DHT22;9260;49.998;19.880;2023-12-20T18:50:26;2.50;1.00
18268;DHT22;9260;49.998;19.880;2023-12-20T19:00:29;2.50;1.00
18268;DHT22;9260;49.998;19.880;2023-12-20T19:10:34;2.50;1.00
18268;DHT22;9260;49.998;19.880;2023-12-20T19:20:37;2.50;1.00
18268;DHT22;9260;49.998;19.880;2023-12-20T19:30:42;2.60;1.00
18268;DHT22;9260;49.998;19.880;2023-12-20T19:40:45;2.70;1.00
18268;DHT22;9260;49.998;19.880;2023-12-20T19:50:51;2.70;1.00
18268;DHT22;9260;49.998;19.880;2023-12-20T20:00:57;2.70;1.00
18268;DHT22;9260;49.998;19.880;2023-12-20T20:11:01;2.10;1.00
18268;DHT22;9260;49.998;19.880;2023-12-20T20:21:10;2.00;1.00
18268;DHT22;9260;49.998;19.880;2023-12-20T20:31:15;2.10;1.00
18268;DHT22;9260;49.998;19.880;2023-12-20T20:41:19;2.40;1.00
18268;DHT22;9260;49.998;19.880;2023-12-20T20:51:23;2.10;1.00
18268;DHT22;9260;49.998;19.880;2023-12-20T21:01:27;2.00;1.00
18268;DHT22;9260;49.998;19.880;2023-12-20T21:11:34;2.30;1.60
18268;DHT22;9260;49.998;19.880;2023-12-20T21:21:38;1.70;1.00
18268;DHT22;9260;49.998;19.880;2023-12-20T21:31:43;1.70;1.00
18268;DHT22;9260;49.998;19.880;2023-12-20T21:41:46;1.50;1.00
18268;DHT22;9260;49.998;19.880;2023-12-20T21:51:52;1.60;1.00
18268;DHT22;9260;49.998;19.880;2023-12-20T22:01:56;1.60;1.00
18268;DHT22;9260;49.998;19.880;2023-12-20T22:12:01;2.10;1.00
18268;DHT22;9260;49.998;19.880;2023-12-20T22:22:04;2.10;1.00
18268;DHT22;9260;49.998;19.880;2023-12-20T22:32:09;2.20;1.00
18268;DHT22;9260;49.998;19.880;2023-12-20T22:42:12;2.10;1.00
18268;DHT22;9260;49.998;19.880;2023-12-20T22:52:18;1.90;1.00
18268;DHT22;9260;49.998;19.880;2023-12-20T23:02:23;2.00;1.00
18268;DHT22;9260;49.998;19.880;2023-12-20T23:12:28;2.20;1.00
18268;DHT22;9260;49.998;19.880;2023-12-20T23:22:33;2.40;1.00
18268;DHT22;9260;49.998;19.880;2023-12-20T23:32:38;2.40;1.00
18268;DHT22;9260;49.998;19.880;2023-12-20T23:42:41;3.90;1.00
18268;DHT22;9260;49.998;19.880;2023-12-20T23:52:46;2.40;1.00
